New Delhi, Illinois
Current Conditions -  °F | °C
As of 3:54 AM on Wednesday 26 Nov 2014 (Local Time) from KSET Reporting Station
Clear Clear  
Wind Chill: 21°   Ceiling: Unl
Heat Index: 29°   Visibility: 7mi
Dew Point: 27°   Wind: 8mph
Humidity: 92%   Direction: 90°E
Pressure: 30.09"   Gusts: NA
Location:  39.1259°N, 90.3475°W
Report Text: KSET 260954Z AUTO 09007KT 7SM CLR M02/M03 A3009 RMK AO2 SLP193 T10171028
Loading
Personal Weather Stations






























Interactive Weather Map New forecast layout! Learn more

10-Day Weather Forecast

Advertisements
Track Severe Weather on mobile